createdAt,value
2019-04-06T00:01:56.144Z,42.87
2019-04-06T00:04:28.441Z,49.70
2019-04-06T00:06:58.431Z,54.70
2019-04-06T00:09:28.737Z,59.40
2019-04-06T00:11:59.058Z,51.33
2019-04-06T00:14:29.525Z,59.77
2019-04-06T00:16:59.906Z,31.83
2019-04-06T00:19:30.286Z,35.60
2019-04-06T00:22:00.606Z,47.93
2019-04-06T00:24:30.928Z,30.67
2019-04-06T00:27:01.360Z,33.50
2019-04-06T00:29:31.764Z,35.83
2019-04-06T00:32:12.218Z,41.17
2019-04-06T00:34:42.536Z,34.00
2019-04-06T00:37:14.162Z,33.37
2019-04-06T00:39:44.514Z,38.03
2019-04-06T00:42:14.861Z,35.20
2019-04-06T00:44:45.229Z,37.00
2019-04-06T00:47:15.595Z,35.97
2019-04-06T00:49:45.944Z,36.87
2019-04-06T00:52:18.249Z,38.87
2019-04-06T00:54:48.628Z,42.03
2019-04-06T00:57:18.922Z,43.00
2019-04-06T00:59:50.374Z,50.07
2019-04-06T01:02:20.953Z,43.97
2019-04-06T01:04:51.293Z,42.57
2019-04-06T01:07:23.209Z,51.53
2019-04-06T01:09:53.570Z,43.20
2019-04-06T01:12:23.882Z,67.57
2019-04-06T01:14:54.235Z,43.67
2019-04-06T01:17:24.652Z,33.87
2019-04-06T01:19:55.045Z,37.03
2019-04-06T01:22:25.367Z,36.37
2019-04-06T01:24:55.705Z,39.60
2019-04-06T01:27:26.030Z,39.83
2019-04-06T01:29:56.492Z,42.47
2019-04-06T01:32:26.870Z,38.87
2019-04-06T01:34:57.452Z,56.13
2019-04-06T01:37:27.977Z,44.07
2019-04-06T01:39:58.424Z,36.50
2019-04-06T01:42:28.725Z,42.90
2019-04-06T01:44:59.122Z,38.33
2019-04-06T01:47:29.520Z,39.13
2019-04-06T01:49:59.865Z,37.50
2019-04-06T01:52:30.210Z,36.63
2019-04-06T01:55:00.549Z,39.30
2019-04-06T01:57:30.871Z,38.27
2019-04-06T02:00:01.217Z,39.53
2019-04-06T02:02:37.032Z,44.67
2019-04-06T02:05:08.763Z,38.40
2019-04-06T02:07:39.614Z,42.33
2019-04-06T02:10:10.197Z,43.07
2019-04-06T02:12:40.913Z,41.27
2019-04-06T02:15:11.601Z,39.27
2019-04-06T02:17:42.101Z,39.83
2019-04-06T02:20:12.600Z,39.73
2019-04-06T02:22:42.922Z,40.70
2019-04-06T02:25:13.547Z,39.40
2019-04-06T02:27:43.867Z,41.70
2019-04-06T02:30:22.759Z,41.03
2019-04-06T02:33:14.061Z,39.13
2019-04-06T02:36:05.389Z,40.87
2019-04-06T02:38:47.921Z,39.57
2019-04-06T02:41:36.188Z,40.73
2019-04-06T02:44:06.520Z,42.20
2019-04-06T02:46:36.880Z,41.43
2019-04-06T02:49:07.554Z,42.50
2019-04-06T02:51:37.990Z,40.60
2019-04-06T02:54:08.264Z,41.23
2019-04-06T02:56:46.193Z,40.77
2019-04-06T02:59:11.039Z,42.10
2019-04-06T03:01:42.752Z,41.13
2019-04-06T03:04:13.511Z,42.73
2019-04-06T03:06:43.865Z,45.00
2019-04-06T03:09:14.224Z,44.40
2019-04-06T03:11:44.529Z,43.53
2019-04-06T03:14:14.890Z,45.40
2019-04-06T03:16:45.206Z,45.63
2019-04-06T03:19:15.528Z,45.07
2019-04-06T03:21:45.880Z,43.70
2019-04-06T03:24:16.183Z,46.93
2019-04-06T03:26:59.774Z,45.83
2019-04-06T03:29:18.438Z,48.10
2019-04-06T03:31:49.146Z,47.40
2019-04-06T03:34:21.256Z,44.83
2019-04-06T03:36:51.594Z,45.40
2019-04-06T03:39:21.919Z,47.13
2019-04-06T03:41:52.254Z,48.00
2019-04-06T03:44:22.591Z,47.07
2019-04-06T03:46:52.943Z,47.77
2019-04-06T03:49:23.416Z,48.57
2019-04-06T03:51:53.826Z,48.60
2019-04-06T03:54:24.171Z,50.20
2019-04-06T03:56:54.482Z,48.00
2019-04-06T03:59:24.822Z,50.07
2019-04-06T04:01:55.264Z,48.83
2019-04-06T04:04:25.803Z,48.03
2019-04-06T04:06:56.124Z,47.87
2019-04-06T04:09:26.431Z,49.03
2019-04-06T04:11:57.233Z,49.63
2019-04-06T04:14:27.666Z,50.87
2019-04-06T04:18:05.385Z,49.37
2019-04-06T04:20:36.502Z,51.57
2019-04-06T04:23:08.606Z,52.90
2019-04-06T04:25:43.309Z,49.47
2019-04-06T04:28:14.168Z,50.63
2019-04-06T04:30:46.299Z,49.93
2019-04-06T04:33:18.425Z,51.40
2019-04-06T04:35:48.843Z,51.47
2019-04-06T04:38:19.264Z,50.13
2019-04-06T04:40:50.324Z,54.37
2019-04-06T04:43:21.148Z,50.20
2019-04-06T04:45:52.898Z,50.87
2019-04-06T04:48:23.262Z,50.77
2019-04-06T04:50:54.130Z,51.60
2019-04-06T04:53:24.689Z,52.13
2019-04-06T04:55:57.145Z,48.97
2019-04-06T04:58:28.017Z,53.87
2019-04-06T05:01:00.074Z,51.23
2019-04-06T05:03:30.380Z,53.77
2019-04-06T05:06:00.698Z,54.37
2019-04-06T05:10:33.106Z,52.67
2019-04-06T05:13:03.434Z,55.33
2019-04-06T05:16:04.898Z,57.20
2019-04-06T05:18:35.229Z,56.30
2019-04-06T05:21:05.656Z,58.00
2019-04-06T05:23:35.973Z,55.77
2019-04-06T05:26:06.857Z,53.57
2019-04-06T05:28:37.232Z,58.73
2019-04-06T05:31:07.557Z,57.27
2019-04-06T05:33:38.144Z,57.27
2019-04-06T05:36:08.797Z,55.63
2019-04-06T05:38:39.154Z,56.07
2019-04-06T05:41:09.460Z,54.10
2019-04-06T05:43:39.987Z,53.43
2019-04-06T05:46:10.292Z,56.97
2019-04-06T05:48:42.378Z,55.97
2019-04-06T05:51:12.695Z,55.90
2019-04-06T05:53:43.009Z,53.40
2019-04-06T05:56:13.395Z,54.33
2019-04-06T05:58:44.423Z,57.20
2019-04-06T06:01:15.143Z,56.60
2019-04-06T06:03:46.193Z,53.50
2019-04-06T06:06:16.510Z,54.10
2019-04-06T06:08:46.846Z,54.07
2019-04-06T06:11:17.219Z,54.27
2019-04-06T06:13:47.518Z,54.77
2019-04-06T06:16:17.843Z,55.17
2019-04-06T06:18:48.172Z,55.40
2019-04-06T06:21:18.505Z,56.50
2019-04-06T06:23:48.770Z,54.87
2019-04-06T06:26:19.109Z,54.40
2019-04-06T06:28:49.426Z,56.63
2019-04-06T06:31:19.790Z,55.87
2019-04-06T06:33:50.097Z,53.33
2019-04-06T06:36:20.961Z,56.10
2019-04-06T06:38:51.345Z,56.53
2019-04-06T06:41:21.666Z,53.30
2019-04-06T06:43:52.144Z,53.67
2019-04-06T06:46:22.555Z,52.40
2019-04-06T06:48:53.178Z,54.00
2019-04-06T06:51:23.630Z,54.03
2019-04-06T06:53:53.946Z,54.30
2019-04-06T06:56:24.293Z,53.87
2019-04-06T06:58:54.682Z,51.83
2019-04-06T07:01:25.208Z,52.30
2019-04-06T07:03:55.861Z,54.23
2019-04-06T07:06:26.175Z,52.53
2019-04-06T07:08:56.513Z,50.73
2019-04-06T07:11:27.244Z,51.97
2019-04-06T07:13:57.609Z,50.83
2019-04-06T07:16:27.913Z,52.67
2019-04-06T07:18:58.439Z,50.57
2019-04-06T07:21:29.178Z,51.47
2019-04-06T07:23:59.448Z,50.13
2019-04-06T07:26:36.121Z,50.30
2019-04-06T07:29:06.442Z,50.13
2019-04-06T07:31:36.774Z,49.17
2019-04-06T07:34:07.650Z,48.93
2019-04-06T07:36:38.163Z,47.03
2019-04-06T07:39:08.083Z,47.53
2019-04-06T07:41:38.101Z,47.63
2019-04-06T07:44:08.741Z,46.27
2019-04-06T07:46:40.345Z,45.97
2019-04-06T07:49:10.729Z,45.97
2019-04-06T07:53:49.751Z,43.87
2019-04-06T07:56:20.699Z,45.13
2019-04-06T08:00:23.268Z,46.37
2019-04-06T08:02:53.653Z,43.73
2019-04-06T08:05:23.969Z,44.87
2019-04-06T08:07:54.328Z,44.13
2019-04-06T08:10:24.645Z,45.17
2019-04-06T08:12:54.981Z,43.87
2019-04-06T08:15:25.488Z,43.83
2019-04-06T08:17:55.881Z,43.10
2019-04-06T08:20:26.193Z,42.97
2019-04-06T08:22:56.586Z,40.97
2019-04-06T08:25:26.935Z,42.97
2019-04-06T08:27:57.237Z,43.90
2019-04-06T08:30:27.553Z,43.90
2019-04-06T08:32:57.865Z,42.97
2019-04-06T08:35:28.277Z,42.73
2019-04-06T08:37:59.768Z,43.30
2019-04-06T08:40:30.090Z,41.57
2019-04-06T08:43:00.573Z,41.90
2019-04-06T08:45:30.902Z,42.57
2019-04-06T08:48:01.197Z,42.60
2019-04-06T08:50:31.863Z,43.30
2019-04-06T08:53:02.204Z,39.83
2019-04-06T08:55:32.540Z,42.13
2019-04-06T08:58:02.930Z,42.00
2019-04-06T09:00:34.578Z,42.67
2019-04-06T09:03:04.960Z,42.80
2019-04-06T09:07:54.937Z,43.23
2019-04-06T09:10:25.260Z,41.97
2019-04-06T09:12:56.459Z,42.57
2019-04-06T09:15:27.266Z,40.80
2019-04-06T09:17:57.544Z,40.27
2019-04-06T09:20:28.062Z,42.00
2019-04-06T09:22:58.545Z,40.80
2019-04-06T09:25:29.113Z,41.90
2019-04-06T09:27:59.492Z,41.27
2019-04-06T09:30:30.217Z,41.07
2019-04-06T09:33:00.676Z,39.97
2019-04-06T09:35:31.152Z,38.43
2019-04-06T09:38:01.464Z,38.57
2019-04-06T09:40:31.812Z,38.37
2019-04-06T09:43:02.181Z,37.47
2019-04-06T09:46:03.878Z,37.03
2019-04-06T09:48:56.242Z,37.67
2019-04-06T09:51:34.846Z,38.03
2019-04-06T09:54:21.565Z,35.67
2019-04-06T09:57:05.908Z,36.43
2019-04-06T10:00:01.945Z,36.27
2019-04-06T10:03:06.682Z,37.63
2019-04-06T10:05:53.247Z,34.83
2019-04-06T10:08:42.604Z,35.37
2019-04-06T10:11:35.928Z,35.77
2019-04-06T10:14:25.307Z,34.00
2019-04-06T10:17:30.128Z,36.83
2019-04-06T10:20:25.730Z,36.90
2019-04-06T10:23:18.140Z,34.73
2019-04-06T10:25:54.167Z,35.73
2019-04-06T10:28:38.666Z,33.67
2019-04-06T10:31:27.065Z,34.17
2019-04-06T10:34:16.620Z,33.20
2019-04-06T10:37:21.426Z,34.00
2019-04-06T10:40:13.810Z,32.40
2019-04-06T10:43:09.326Z,32.20
2019-04-06T10:45:57.782Z,30.40
2019-04-06T10:48:56.700Z,32.17
2019-04-06T10:51:45.650Z,31.67
2019-04-06T10:54:38.858Z,30.57
2019-04-06T10:57:25.986Z,30.83
2019-04-06T11:00:23.240Z,30.93
2019-04-06T11:03:00.396Z,30.00
2019-04-06T11:05:59.317Z,29.40
2019-04-06T11:08:47.786Z,28.13
2019-04-06T11:11:36.465Z,28.10
2019-04-06T11:14:38.239Z,26.17
2019-04-06T11:17:26.311Z,25.23
2019-04-06T11:20:15.067Z,25.03
2019-04-06T11:23:05.083Z,25.00
2019-04-06T11:25:51.788Z,25.30
2019-04-06T11:28:31.846Z,24.40
2019-04-06T11:31:22.843Z,24.40
2019-04-06T11:34:11.575Z,22.70
2019-04-06T11:37:03.816Z,22.80
2019-04-06T11:39:56.288Z,22.00
2019-04-06T11:42:36.453Z,20.17
2019-04-06T11:45:16.267Z,20.07
2019-04-06T11:48:05.585Z,22.13
2019-04-06T11:50:45.180Z,21.83
2019-04-06T11:53:38.818Z,20.70
2019-04-06T11:56:19.025Z,22.70
2019-04-06T11:59:14.662Z,21.40
2019-04-06T12:01:52.584Z,21.83
2019-04-06T12:04:35.273Z,21.23
2019-04-06T12:07:17.881Z,21.13
2019-04-06T12:10:23.833Z,21.47
2019-04-06T12:13:25.646Z,22.03
2019-04-06T12:16:21.331Z,19.87
2019-04-06T12:18:59.856Z,18.97
2019-04-06T12:21:52.093Z,19.40
2019-04-06T12:24:59.945Z,18.40
2019-04-06T12:27:55.768Z,19.57
2019-04-06T12:30:54.221Z,18.33
2019-04-06T12:33:37.456Z,18.30
2019-04-06T12:36:14.224Z,16.97
2019-04-06T12:39:19.404Z,16.57
2019-04-06T12:42:12.006Z,17.60
2019-04-06T12:44:53.418Z,17.17
2019-04-06T12:47:43.477Z,16.90
2019-04-06T12:50:21.571Z,18.80
2019-04-06T12:53:10.678Z,16.97
2019-04-06T12:56:06.785Z,17.47
2019-04-06T12:58:54.134Z,16.60
2019-04-06T13:01:51.612Z,15.63
2019-04-06T13:04:59.390Z,15.23
2019-04-06T13:07:47.669Z,15.10
2019-04-06T13:10:32.970Z,14.37
2019-04-06T13:13:18.632Z,14.13
2019-04-06T13:15:57.395Z,14.00
2019-04-06T13:18:46.810Z,14.90
2019-04-06T13:21:25.772Z,13.57
2019-04-06T13:24:02.677Z,15.00
2019-04-06T13:26:52.016Z,15.10
2019-04-06T13:29:29.438Z,14.07
2019-04-06T13:32:17.858Z,15.20
2019-04-06T13:35:22.628Z,15.60
2019-04-06T13:38:24.056Z,16.27
2019-04-06T13:41:12.324Z,16.43
2019-04-06T13:44:04.940Z,15.83
2019-04-06T13:47:12.228Z,15.10
2019-04-06T13:50:17.407Z,14.27
2019-04-06T13:53:00.824Z,15.37
2019-04-06T13:55:58.982Z,15.83
2019-04-06T13:58:51.154Z,17.77
2019-04-06T14:01:42.651Z,15.70
2019-04-06T14:04:23.390Z,19.70
2019-04-06T14:07:11.716Z,14.83
2019-04-06T14:10:04.537Z,14.60
2019-04-06T14:12:53.501Z,15.73
2019-04-06T14:15:41.793Z,15.30
2019-04-06T14:18:34.461Z,15.67
2019-04-06T14:21:20.992Z,15.10
2019-04-06T14:24:22.793Z,15.50
2019-04-06T14:27:11.069Z,14.03
2019-04-06T14:30:12.610Z,14.23
2019-04-06T14:32:53.410Z,14.17
2019-04-06T14:35:41.437Z,14.00
2019-04-06T14:38:23.820Z,13.77
2019-04-06T14:41:25.467Z,14.10
2019-04-06T14:44:14.892Z,13.10
2019-04-06T14:47:44.664Z,13.93
2019-04-06T14:50:46.445Z,13.43
2019-04-06T14:53:34.671Z,13.30
2019-04-06T14:56:12.612Z,13.40
2019-04-06T14:58:58.952Z,14.93
2019-04-06T15:01:56.787Z,14.23
2019-04-06T15:04:42.320Z,14.30
2019-04-06T15:07:24.469Z,13.13
2019-04-06T15:10:16.315Z,13.73
2019-04-06T15:13:08.886Z,12.77
2019-04-06T15:15:58.709Z,13.10
2019-04-06T15:18:47.073Z,13.10
2019-04-06T15:21:24.957Z,14.37
2019-04-06T15:24:17.618Z,13.47
2019-04-06T15:27:04.438Z,12.90
2019-04-06T15:29:53.099Z,13.20
2019-04-06T15:32:36.653Z,12.77
2019-04-06T15:35:24.726Z,13.47
2019-04-06T15:38:13.053Z,14.33
2019-04-06T15:40:58.802Z,13.23
2019-04-06T15:43:38.006Z,13.70
2019-04-06T15:46:31.410Z,13.13
2019-04-06T15:49:33.140Z,13.23
2019-04-06T15:52:21.580Z,12.87
2019-04-06T15:54:58.298Z,12.23
2019-04-06T15:57:36.845Z,12.60
2019-04-06T16:00:32.851Z,12.83
2019-04-06T16:03:23.589Z,13.03
2019-04-06T16:06:03.798Z,11.60
2019-04-06T16:08:50.504Z,10.73
2019-04-06T16:11:46.022Z,12.67
2019-04-06T16:14:40.392Z,12.20
2019-04-06T16:17:36.085Z,11.50
2019-04-06T16:20:28.837Z,12.37
2019-04-06T16:23:18.483Z,10.90
2019-04-06T16:26:02.829Z,11.43
2019-04-06T16:28:50.229Z,12.23
2019-04-06T16:31:55.089Z,12.33
2019-04-06T16:34:44.013Z,12.60
2019-04-06T16:37:30.913Z,12.30
2019-04-06T16:40:12.900Z,12.00
2019-04-06T16:43:14.704Z,12.30
2019-04-06T16:46:02.935Z,12.17
2019-04-06T16:48:52.558Z,12.33
2019-04-06T16:51:40.101Z,11.27
2019-04-06T16:54:28.853Z,11.93
2019-04-06T16:57:21.655Z,11.40
2019-04-06T17:00:18.933Z,11.57
2019-04-06T17:02:57.684Z,10.90
2019-04-06T17:06:06.197Z,10.30
2019-04-06T17:08:46.218Z,10.67
2019-04-06T17:11:34.776Z,10.67
2019-04-06T17:14:26.499Z,10.63
2019-04-06T17:17:19.178Z,10.30
2019-04-06T17:20:02.155Z,10.70
2019-04-06T17:22:54.972Z,10.63
2019-04-06T17:25:42.754Z,11.30
2019-04-06T17:28:30.980Z,9.83
2019-04-06T17:31:07.980Z,10.43
2019-04-06T17:33:56.205Z,11.20
2019-04-06T17:36:40.985Z,11.33
2019-04-06T17:39:21.904Z,11.20
2019-04-06T17:42:11.300Z,10.53
2019-04-06T17:44:52.522Z,11.50
2019-04-06T17:47:39.636Z,11.33
2019-04-06T17:50:35.781Z,12.87
2019-04-06T17:53:17.963Z,12.60
2019-04-06T17:56:07.335Z,12.97
2019-04-06T17:58:56.680Z,12.97
2019-04-06T18:01:41.075Z,13.70
2019-04-06T18:04:30.414Z,13.93
2019-04-06T18:07:24.301Z,14.30
2019-04-06T18:10:15.799Z,13.77
2019-04-06T18:12:53.218Z,13.93
2019-04-06T18:15:24.247Z,13.93
2019-04-06T18:17:54.955Z,14.60
2019-04-06T18:20:25.473Z,13.97
2019-04-06T18:22:55.777Z,13.37
2019-04-06T18:25:26.623Z,13.63
2019-04-06T18:27:57.206Z,14.33
2019-04-06T18:30:27.560Z,13.90
2019-04-06T18:33:10.801Z,13.67
2019-04-06T18:35:41.558Z,13.80
2019-04-06T18:38:17.261Z,14.37
2019-04-06T18:40:47.578Z,14.23
2019-04-06T18:43:18.499Z,14.27
2019-04-06T18:45:48.890Z,14.37
2019-04-06T18:48:19.310Z,13.63
2019-04-06T18:50:49.626Z,13.70
2019-04-06T18:53:20.360Z,12.93
2019-04-06T18:55:50.733Z,13.63
2019-04-06T18:58:21.040Z,13.17
2019-04-06T19:00:51.462Z,13.17
2019-04-06T19:03:22.028Z,12.60
2019-04-06T19:05:52.370Z,12.97
2019-04-06T19:08:23.284Z,12.97
2019-04-06T19:13:15.844Z,13.60
2019-04-06T19:15:46.205Z,13.50
2019-04-06T19:18:16.822Z,14.00
2019-04-06T19:20:47.323Z,14.20
2019-04-06T19:23:17.706Z,13.13
2019-04-06T19:25:48.659Z,12.60
2019-04-06T19:28:18.963Z,13.13
2019-04-06T19:30:49.824Z,13.27
2019-04-06T19:33:25.022Z,13.00
2019-04-06T19:35:52.254Z,14.30
2019-04-06T19:38:22.619Z,13.53
2019-04-06T19:40:53.013Z,14.13
2019-04-06T19:43:23.362Z,13.20
2019-04-06T19:45:54.103Z,13.83
2019-04-06T19:48:24.563Z,13.47
2019-04-06T19:50:54.938Z,14.03
2019-04-06T19:53:25.786Z,13.60
2019-04-06T19:55:56.362Z,13.90
2019-04-06T19:58:27.065Z,12.30
2019-04-06T20:00:57.506Z,13.70
2019-04-06T20:03:35.123Z,13.53
2019-04-06T20:06:00.619Z,13.53
2019-04-06T20:08:30.983Z,13.97
2019-04-06T20:11:01.370Z,13.27
2019-04-06T20:13:32.110Z,13.93
2019-04-06T20:16:03.018Z,13.70
2019-04-06T20:18:33.550Z,13.70
2019-04-06T20:21:03.873Z,13.40
2019-04-06T20:23:34.548Z,13.03
2019-04-06T20:26:05.060Z,12.77
2019-04-06T20:28:35.406Z,12.70
2019-04-06T20:31:05.710Z,13.40
2019-04-06T20:33:46.902Z,13.77
2019-04-06T20:36:08.108Z,12.27
2019-04-06T20:38:39.029Z,13.70
2019-04-06T20:41:09.797Z,13.50
2019-04-06T20:43:40.493Z,13.13
2019-04-06T20:46:10.879Z,13.43
2019-04-06T20:48:44.556Z,13.37
2019-04-06T20:51:14.985Z,14.33
2019-04-06T20:53:45.350Z,14.07
2019-04-06T20:56:16.082Z,14.70
2019-04-06T20:58:46.598Z,13.90
2019-04-06T21:01:16.917Z,14.47
2019-04-06T21:03:58.780Z,14.40
2019-04-06T21:06:19.217Z,14.77
2019-04-06T21:08:49.523Z,14.93
2019-04-06T21:11:19.837Z,14.87
2019-04-06T21:13:50.177Z,14.67
2019-04-06T21:16:20.590Z,14.03
2019-04-06T21:18:50.927Z,15.00
2019-04-06T21:21:21.258Z,15.20
2019-04-06T21:23:51.626Z,15.30
2019-04-06T21:26:22.475Z,14.80
2019-04-06T21:28:53.093Z,15.20
2019-04-06T21:31:23.480Z,14.73
2019-04-06T21:33:53.815Z,15.80
2019-04-06T21:36:24.377Z,15.60
2019-04-06T21:38:57.130Z,15.53
2019-04-06T21:41:29.106Z,15.63
2019-04-06T21:44:01.185Z,15.57
2019-04-06T21:46:32.615Z,14.07
2019-04-06T21:49:06.770Z,14.60
2019-04-06T21:51:39.339Z,14.50
2019-04-06T21:54:10.921Z,13.67
2019-04-06T21:56:42.515Z,13.47
2019-04-06T21:59:15.373Z,13.33
2019-04-06T22:01:46.516Z,13.13
2019-04-06T22:04:24.922Z,13.80
2019-04-06T22:06:49.005Z,13.20
2019-04-06T22:10:08.400Z,12.83
2019-04-06T22:12:41.796Z,14.03
2019-04-06T22:15:15.065Z,14.67
2019-04-06T22:17:46.678Z,14.67
2019-04-06T22:20:19.742Z,14.73
2019-04-06T22:22:51.505Z,14.80
2019-04-06T22:25:25.712Z,15.07
2019-04-06T22:27:58.431Z,15.63
2019-04-06T22:30:30.917Z,15.73
2019-04-06T22:33:01.847Z,16.37
2019-04-06T22:35:33.986Z,16.63
2019-04-06T22:38:06.835Z,16.20
2019-04-06T22:40:37.397Z,16.77
2019-04-06T22:43:09.054Z,17.03
2019-04-06T22:45:39.719Z,17.33
2019-04-06T22:48:11.983Z,17.30
2019-04-06T22:50:42.992Z,17.60
2019-04-06T22:53:15.758Z,16.13
2019-04-06T22:55:48.341Z,17.23
2019-04-06T22:58:22.580Z,15.90
2019-04-06T23:00:57.079Z,17.20
2019-04-06T23:03:50.584Z,17.37
2019-04-06T23:06:25.769Z,16.70
2019-04-06T23:08:57.937Z,15.87
2019-04-06T23:11:32.495Z,16.47
2019-04-06T23:14:03.040Z,17.30
2019-04-06T23:16:35.312Z,17.40
2019-04-06T23:19:07.440Z,17.87
2019-04-06T23:21:39.693Z,17.17
2019-04-06T23:24:10.248Z,17.67
2019-04-06T23:26:42.661Z,18.50
2019-04-06T23:29:15.529Z,17.73
2019-04-06T23:31:48.391Z,17.67
2019-04-06T23:34:18.302Z,18.80
2019-04-06T23:36:51.410Z,18.70
2019-04-06T23:39:22.974Z,18.50
2019-04-06T23:41:54.145Z,18.50
2019-04-06T23:44:26.068Z,19.20
2019-04-06T23:46:58.761Z,19.13
2019-04-06T23:49:30.537Z,19.73
2019-04-06T23:52:01.298Z,18.13
2019-04-06T23:54:31.638Z,17.80
2019-04-06T23:57:02.592Z,18.67
2019-04-06T23:59:32.910Z,17.47
